Time;durP1;ratioP1;P1;durP2;ratioP2;P2;SDS_P1;SDS_P2;PMS_P1;PMS_P2;Temp;Humidity;BMP_temperature;BMP_pressure;BME280_temperature;BME280_humidity;BME280_pressure;Samples;Min_cycle;Max_cycle;Signal;HPM_P1;HPM_P2
2022/12/24 00:01:59;;;;;;;;;;;;;;;20.67;27.77;97613.75;5095680;28;985;-75
2022/12/24 00:04:24;;;;;;;;;;;;;;;21.05;27.45;97606.16;5095726;28;1901;-75
2022/12/24 00:06:50;;;;;;;;;;;;;;;21.19;27.03;97610.59;5095614;28;986;-75
2022/12/24 00:09:15;;;;;;;;;;;;;;;21.12;27.04;97610.78;5095408;28;942;-76
2022/12/24 00:11:40;;;;;;;;;;;;;;;21.39;26.82;97606.75;5095232;28;1023;-75
2022/12/24 00:14:06;;;;;;;;;;;;;;;21.40;26.85;97608.34;5095786;28;1024;-75
2022/12/24 00:16:31;;;;;;;;;;;;;;;21.14;27.24;97608.31;5095189;28;945;-75
2022/12/24 00:18:57;;;;;;;;;;;;;;;21.15;27.31;97615.56;5095530;28;920;-76
2022/12/24 00:21:22;;;;;;;;;;;;;;;21.38;27.07;97610.84;5095128;28;920;-75
2022/12/24 00:23:48;;;;;;;;;;;;;;;21.43;27.01;97610.25;5095365;28;918;-75
2022/12/24 00:26:13;;;;;;;;;;;;;;;21.59;26.82;97619.41;5095253;28;1913;-75
2022/12/24 00:28:39;;;;;;;;;;;;;;;21.18;27.44;97608.19;5095172;28;949;-75
2022/12/24 00:31:11;;;;;;;;;;;;;;;21.06;27.58;97635.22;5095480;28;1184;-75
2022/12/24 00:33:37;;;;;;;;;;;;;;;20.98;27.81;97628.19;5094987;28;925;-75
2022/12/24 00:36:03;;;;;;;;;;;;;;;21.45;27.31;97617.06;5095291;28;961;-75
2022/12/24 00:38:28;;;;;;;;;;;;;;;21.46;27.09;97609.38;5094858;28;934;-75
2022/12/24 00:41:00;;;;;;;;;;;;;;;21.17;27.37;97613.06;5097112;28;915;-76
2022/12/24 00:43:26;;;;;;;;;;;;;;;21.11;27.66;97609.22;5099591;28;1049;-76
2022/12/24 00:45:51;;;;;;;;;;;;;;;20.99;27.95;97612.81;5099472;28;1913;-76
2022/12/24 00:48:17;;;;;;;;;;;;;;;21.21;27.58;97605.25;5099217;28;947;-76
2022/12/24 00:50:42;;;;;;;;;;;;;;;21.23;27.62;97594.28;5099414;28;1142;-76
2022/12/24 00:53:08;;;;;;;;;;;;;;;21.40;27.53;97605.50;5099335;28;952;-76
2022/12/24 00:55:33;;;;;;;;;;;;;;;21.00;27.86;97600.25;5099235;28;1097;-75
2022/12/24 00:57:59;;;;;;;;;;;;;;;20.95;28.16;97598.00;5099116;28;949;-75
2022/12/24 01:00:24;;;;;;;;;;;;;;;21.10;27.95;97601.97;5099109;28;904;-77
2022/12/24 01:02:50;;;;;;;;;;;;;;;21.32;27.75;97585.13;5079835;28;1008;-77
2022/12/24 01:05:19;;;;;;;;;;;;;;;21.39;27.49;97589.78;5098416;28;1909;-74
2022/12/24 01:07:45;;;;;;;;;;;;;;;21.30;27.43;97588.44;5098646;28;957;-74
2022/12/24 01:10:11;;;;;;;;;;;;;;;20.95;28.07;97583.84;5098763;28;1126;-74
2022/12/24 01:12:36;;;;;;;;;;;;;;;20.98;28.30;97582.94;5098910;28;1067;-74
2022/12/24 01:15:02;;;;;;;;;;;;;;;21.33;27.59;97581.06;5098589;28;1290;-74
2022/12/24 01:17:29;;;;;;;;;;;;;;;21.48;27.43;97578.56;5079271;28;992;-74
2022/12/24 01:19:55;;;;;;;;;;;;;;;21.56;27.24;97577.09;5097703;28;1003;-74
2022/12/24 01:22:20;;;;;;;;;;;;;;;21.28;27.63;97579.56;5098120;28;902;-74
2022/12/24 01:24:47;;;;;;;;;;;;;;;21.10;27.76;97579.34;5098158;28;1992;-74
2022/12/24 01:27:12;;;;;;;;;;;;;;;21.24;27.83;97573.25;5098478;28;882;-74
2022/12/24 01:29:38;;;;;;;;;;;;;;;21.33;27.55;97573.34;5079187;28;1013;-74
2022/12/24 01:32:03;;;;;;;;;;;;;;;21.52;27.32;97576.41;5097078;28;1010;-74
2022/12/24 01:34:28;;;;;;;;;;;;;;;21.49;27.23;97577.31;5098116;28;1226;-74
2022/12/24 01:36:54;;;;;;;;;;;;;;;20.97;27.95;97570.03;5098283;28;994;-74
2022/12/24 01:39:19;;;;;;;;;;;;;;;20.79;28.16;97574.22;5098355;28;891;-74
2022/12/24 01:44:30;;;;;;;;;;;;;;;21.17;27.78;97573.44;5098112;28;1984;-74
2022/12/24 01:47:16;;;;;;;;;;;;;;;21.56;27.18;97577.09;5097831;28;863;-74
2022/12/24 01:49:43;;;;;;;;;;;;;;;21.44;27.35;97569.38;5097822;28;1026;-74
2022/12/24 01:52:13;;;;;;;;;;;;;;;21.08;27.49;97568.47;5096095;28;982;-74
2022/12/24 01:54:40;;;;;;;;;;;;;;;20.72;28.22;97571.59;5098139;28;910;-74
2022/12/24 01:57:10;;;;;;;;;;;;;;;20.64;28.32;97564.56;5097997;28;976;-74
2022/12/24 01:59:35;;;;;;;;;;;;;;;21.12;27.75;97571.19;5096471;28;986;-74
2022/12/24 02:02:01;;;;;;;;;;;;;;;21.43;26.88;97567.81;5098198;28;921;-75
2022/12/24 02:04:35;;;;;;;;;;;;;;;21.44;27.00;97563.72;5096849;28;1976;-74
2022/12/24 02:07:00;;;;;;;;;;;;;;;21.12;27.46;97570.41;5096427;28;963;-74
2022/12/24 02:09:26;;;;;;;;;;;;;;;21.17;27.33;97564.16;5096375;28;990;-74
2022/12/24 02:11:51;;;;;;;;;;;;;;;21.03;27.62;97568.22;5096751;28;880;-74
2022/12/24 02:14:17;;;;;;;;;;;;;;;21.20;27.17;97563.28;5078298;28;1235;-74
2022/12/24 02:16:52;;;;;;;;;;;;;;;21.22;27.33;97561.56;5096699;28;1003;-74
2022/12/24 02:19:29;;;;;;;;;;;;;;;21.39;26.83;97561.47;5097572;28;1018;-74
2022/12/24 02:21:54;;;;;;;;;;;;;;;21.33;27.11;97570.53;5097544;28;1041;-73
2022/12/24 02:24:39;;;;;;;;;;;;;;;20.89;28.00;97568.69;5097122;28;1914;-74
2022/12/24 02:27:10;;;;;;;;;;;;;;;20.73;27.93;97570.38;5097412;28;906;-74
2022/12/24 02:29:54;;;;;;;;;;;;;;;21.01;27.57;97570.72;5096222;28;1026;-74
2022/12/24 02:32:23;;;;;;;;;;;;;;;21.22;27.15;97563.59;5096991;28;1043;-74
2022/12/24 02:35:03;;;;;;;;;;;;;;;21.46;26.68;97566.91;5095770;28;1107;-74
2022/12/24 02:37:48;;;;;;;;;;;;;;;21.16;27.15;97566.22;5096128;28;1145;-74
2022/12/24 02:40:14;;;;;;;;;;;;;;;20.74;27.97;97560.63;5095688;28;981;-74
2022/12/24 02:42:40;;;;;;;;;;;;;;;20.55;28.46;97564.44;5096938;28;1061;-74
2022/12/24 02:45:29;;;;;;;;;;;;;;;21.21;27.18;97565.66;5061071;28;1913;-74
2022/12/24 02:47:54;;;;;;;;;;;;;;;21.15;27.34;97561.00;5034227;28;1052;-74
2022/12/24 02:50:20;;;;;;;;;;;;;;;21.40;27.11;97568.72;5014066;28;995;-74
2022/12/24 02:52:45;;;;;;;;;;;;;;;21.26;27.06;97565.06;5014239;28;941;-74
2022/12/24 02:55:20;;;;;;;;;;;;;;;21.03;27.54;97568.22;5014556;28;967;-74
2022/12/24 02:57:58;;;;;;;;;;;;;;;21.09;27.50;97563.63;5014095;28;1007;-74
2022/12/24 03:00:23;;;;;;;;;;;;;;;21.30;27.46;97565.78;5014218;28;961;-74
2022/12/24 03:02:58;;;;;;;;;;;;;;;21.37;27.21;97569.63;4997849;28;1055;-74
2022/12/24 03:05:43;;;;;;;;;;;;;;;21.59;27.03;97579.00;4996728;28;1906;-74
2022/12/24 03:08:09;;;;;;;;;;;;;;;21.12;27.79;97585.34;4974753;28;1143;-74
2022/12/24 03:10:54;;;;;;;;;;;;;;;20.97;28.03;97579.31;4975196;28;940;-74
2022/12/24 03:13:19;;;;;;;;;;;;;;;21.43;27.59;97570.66;4974577;28;1144;-74
2022/12/24 03:15:45;;;;;;;;;;;;;;;21.43;27.30;97556.50;4974713;28;920;-74
2022/12/24 03:18:11;;;;;;;;;;;;;;;21.62;27.07;97552.63;4974686;28;1063;-74
2022/12/24 03:20:37;;;;;;;;;;;;;;;21.55;27.16;97558.50;4974749;28;1061;-74
2022/12/24 03:23:03;;;;;;;;;;;;;;;21.30;27.77;97553.69;4975066;28;1015;-74
2022/12/24 03:25:28;;;;;;;;;;;;;;;21.09;27.78;97560.78;4988968;28;1987;-74
2022/12/24 03:27:54;;;;;;;;;;;;;;;21.35;27.73;97552.28;4988931;28;965;-74
2022/12/24 03:30:20;;;;;;;;;;;;;;;21.30;27.61;97560.13;4997660;28;1005;-74
2022/12/24 03:32:45;;;;;;;;;;;;;;;21.53;27.24;97553.31;5013631;28;1004;-74
2022/12/24 03:35:11;;;;;;;;;;;;;;;21.10;27.62;97553.09;5013473;28;941;-74
2022/12/24 03:37:36;;;;;;;;;;;;;;;20.70;28.43;97568.44;5013699;28;1043;-74
2022/12/24 03:40:03;;;;;;;;;;;;;;;20.80;28.21;97570.13;5013631;28;1079;-73
2022/12/24 03:42:28;;;;;;;;;;;;;;;20.97;28.15;97576.50;5013609;28;1002;-74
2022/12/24 03:44:54;;;;;;;;;;;;;;;21.04;28.21;97564.97;5042605;28;1977;-74
2022/12/24 03:47:19;;;;;;;;;;;;;;;21.30;27.74;97570.66;5096104;28;956;-74
2022/12/24 03:49:44;;;;;;;;;;;;;;;21.26;27.64;97562.25;5096083;28;924;-74
2022/12/24 03:52:10;;;;;;;;;;;;;;;20.93;28.32;97563.69;5096022;28;1111;-75
2022/12/24 03:54:35;;;;;;;;;;;;;;;21.08;27.89;97565.63;5095966;28;858;-74
2022/12/24 03:57:01;;;;;;;;;;;;;;;21.16;27.92;97565.41;5095996;28;948;-74
2022/12/24 03:59:26;;;;;;;;;;;;;;;21.23;27.90;97560.31;5095684;28;924;-74
2022/12/24 04:01:52;;;;;;;;;;;;;;;21.36;27.63;97566.00;5095640;28;901;-73
2022/12/24 04:04:17;;;;;;;;;;;;;;;21.45;27.42;97570.97;5095437;28;972;-74
2022/12/24 04:06:43;;;;;;;;;;;;;;;21.22;27.72;97575.72;5095111;28;1906;-74
2022/12/24 04:09:08;;;;;;;;;;;;;;;21.06;27.93;97573.00;5096125;28;855;-74
2022/12/24 04:11:33;;;;;;;;;;;;;;;20.87;28.44;97565.50;5095507;28;964;-74
2022/12/24 04:13:59;;;;;;;;;;;;;;;21.17;28.19;97573.44;5095468;28;1118;-74
2022/12/24 04:16:24;;;;;;;;;;;;;;;21.23;28.07;97579.34;5094928;28;899;-74
2022/12/24 04:18:50;;;;;;;;;;;;;;;21.41;27.38;97575.97;5095039;28;936;-74
2022/12/24 04:21:15;;;;;;;;;;;;;;;21.00;28.25;97577.63;5095725;28;943;-74
2022/12/24 04:23:41;;;;;;;;;;;;;;;20.97;28.16;97578.53;5095656;28;1088;-73
2022/12/24 04:26:07;;;;;;;;;;;;;;;21.27;27.96;97589.28;5095533;28;1977;-74
2022/12/24 04:28:32;;;;;;;;;;;;;;;21.28;27.83;97582.38;5094170;28;954;-74
2022/12/24 04:30:58;;;;;;;;;;;;;;;21.42;27.57;97577.56;5093903;28;1115;-74
2022/12/24 04:33:24;;;;;;;;;;;;;;;21.22;27.69;97581.38;5076289;28;995;-74
2022/12/24 04:35:49;;;;;;;;;;;;;;;20.94;28.20;97576.63;5095540;28;887;-75
2022/12/24 04:38:15;;;;;;;;;;;;;;;21.21;27.94;97585.44;5095410;28;935;-74
2022/12/24 04:40:40;;;;;;;;;;;;;;;21.20;27.93;97585.91;5095306;28;1855;-75
2022/12/24 04:43:05;;;;;;;;;;;;;;;21.46;27.75;97583.91;5114269;28;1992;-74
2022/12/24 04:45:31;;;;;;;;;;;;;;;21.59;27.25;97584.66;5115536;28;1973;-74
2022/12/24 04:47:57;;;;;;;;;;;;;;;21.28;27.63;97584.44;5115712;28;921;-74
2022/12/24 04:50:22;;;;;;;;;;;;;;;20.96;28.32;97586.22;5115586;28;1038;-75
2022/12/24 04:52:48;;;;;;;;;;;;;;;20.97;28.19;97581.34;5096422;28;1958;-74
2022/12/24 04:55:13;;;;;;;;;;;;;;;21.28;27.77;97585.22;5115323;28;1109;-74
2022/12/24 04:57:39;;;;;;;;;;;;;;;21.45;27.72;97582.28;5114991;28;1345;-74
2022/12/24 05:00:05;;;;;;;;;;;;;;;21.45;27.45;97576.63;5114729;28;924;-74
2022/12/24 05:02:30;;;;;;;;;;;;;;;21.11;27.81;97592.25;5115296;28;957;-74
2022/12/24 05:04:56;;;;;;;;;;;;;;;21.12;27.94;97588.16;5115488;28;1905;-74
2022/12/24 05:07:21;;;;;;;;;;;;;;;21.02;28.20;97584.41;5114139;28;1113;-74
2022/12/24 05:09:47;;;;;;;;;;;;;;;21.61;27.57;97578.56;5113290;28;1477;-74
2022/12/24 05:12:12;;;;;;;;;;;;;;;21.57;27.37;97595.66;5115190;28;966;-74
2022/12/24 05:14:38;;;;;;;;;;;;;;;21.18;27.79;97586.34;5115516;28;1044;-74
2022/12/24 05:17:03;;;;;;;;;;;;;;;20.85;28.62;97579.31;5115526;28;936;-74
2022/12/24 05:19:29;;;;;;;;;;;;;;;21.04;28.07;97586.81;5094701;28;1532;-74
2022/12/24 05:27:22;;;;;;;;;;;;;;;21.43;27.76;97593.28;5093018;28;1067;-74
2022/12/24 05:29:47;;;;;;;;;;;;;;;21.26;27.62;97603.91;5078460;28;1629;-74
2022/12/24 05:32:13;;;;;;;;;;;;;;;21.05;27.97;97599.72;5075278;28;973;-74
2022/12/24 05:34:38;;;;;;;;;;;;;;;20.96;28.31;97599.56;5075627;28;1026;-74
2022/12/24 05:37:04;;;;;;;;;;;;;;;21.44;27.57;97598.47;5075710;28;951;-74
2022/12/24 05:39:29;;;;;;;;;;;;;;;21.39;27.58;97595.44;5075329;28;1453;-74
2022/12/24 05:41:54;;;;;;;;;;;;;;;21.55;27.35;97603.78;5075642;28;1071;-74
2022/12/24 05:44:20;;;;;;;;;;;;;;;21.55;27.25;97593.28;5075448;28;1028;-74
2022/12/24 05:46:45;;;;;;;;;;;;;;;21.41;27.33;97601.44;5093247;28;1897;-74
2022/12/24 05:49:11;;;;;;;;;;;;;;;21.13;27.94;97603.88;5095767;28;959;-74
2022/12/24 05:51:37;;;;;;;;;;;;;;;20.96;28.22;97608.84;5078510;28;1114;-74
2022/12/24 05:54:02;;;;;;;;;;;;;;;21.55;27.48;97609.47;5078609;28;950;-75
2022/12/24 05:56:27;;;;;;;;;;;;;;;21.45;27.72;97602.91;5116810;28;1511;-74
2022/12/24 05:58:53;;;;;;;;;;;;;;;21.60;27.23;97614.53;5117161;28;967;-74
2022/12/24 06:01:19;;;;;;;;;;;;;;;21.34;27.73;97610.94;5100052;28;862;-74
2022/12/24 06:03:44;;;;;;;;;;;;;;;21.06;28.05;97612.59;5117157;28;940;-74
2022/12/24 06:06:11;;;;;;;;;;;;;;;20.90;28.47;97619.13;5115824;28;1901;-74
2022/12/24 06:08:37;;;;;;;;;;;;;;;20.54;28.29;97560.81;5116737;28;1177;-74
2022/12/24 06:11:03;;;;;;;;;;;;;;;21.38;27.61;97616.50;5117075;28;887;-74
2022/12/24 06:13:28;;;;;;;;;;;;;;;21.50;27.42;97610.03;5117833;27;1259;-74
2022/12/24 06:15:54;;;;;;;;;;;;;;;21.20;27.91;97611.38;5096325;28;1464;-74
2022/12/24 06:18:20;;;;;;;;;;;;;;;21.08;28.02;97615.75;5117842;28;1030;-74
2022/12/24 06:20:48;;;;;;;;;;;;;;;20.83;28.53;97612.88;5118062;28;903;-74
2022/12/24 06:23:14;;;;;;;;;;;;;;;20.99;28.67;97601.50;5117657;28;966;-74
2022/12/24 06:25:39;;;;;;;;;;;;;;;21.35;27.89;97606.06;5117013;28;1984;-74
2022/12/24 06:28:04;;;;;;;;;;;;;;;21.43;27.54;97613.09;5117452;28;999;-74
2022/12/24 06:30:30;;;;;;;;;;;;;;;21.24;27.83;97618.50;5117850;28;983;-74
2022/12/24 06:32:55;;;;;;;;;;;;;;;21.13;28.15;97620.84;5117550;28;1055;-74
2022/12/24 06:35:21;;;;;;;;;;;;;;;20.89;28.27;97613.94;5116748;28;1554;-74
2022/12/24 06:37:46;;;;;;;;;;;;;;;21.37;27.75;97618.53;5117633;28;1030;-75
2022/12/24 06:40:12;;;;;;;;;;;;;;;21.38;27.65;97619.31;5117011;28;998;-74
2022/12/24 06:42:37;;;;;;;;;;;;;;;21.42;27.49;97623.63;5117517;28;869;-74
2022/12/24 06:45:03;;;;;;;;;;;;;;;21.21;28.11;97625.06;5116544;28;1975;-74
2022/12/24 06:47:28;;;;;;;;;;;;;;;21.23;27.97;97622.56;5116247;28;918;-74
2022/12/24 06:49:54;;;;;;;;;;;;;;;21.07;28.12;97636.81;5117298;28;939;-74
2022/12/24 06:52:19;;;;;;;;;;;;;;;21.28;27.77;97643.84;5117309;28;974;-74
2022/12/24 06:54:44;;;;;;;;;;;;;;;21.39;27.68;97635.06;5098097;28;1076;-74
2022/12/24 06:57:10;;;;;;;;;;;;;;;21.33;27.45;97632.00;5116640;28;1507;-74
2022/12/24 06:59:35;;;;;;;;;;;;;;;21.19;27.77;97638.06;5117097;28;891;-74
2022/12/24 07:02:01;;;;;;;;;;;;;;;21.14;27.94;97645.09;5097460;28;985;-74
2022/12/24 07:04:26;;;;;;;;;;;;;;;21.02;28.31;97646.66;5117084;28;1205;-74
2022/12/24 07:06:52;;;;;;;;;;;;;;;21.33;27.82;97644.09;5116329;28;1984;-74
2022/12/24 07:09:17;;;;;;;;;;;;;;;21.49;27.42;97639.59;5117029;28;967;-74
2022/12/24 07:11:43;;;;;;;;;;;;;;;21.27;27.94;97651.56;5097690;28;1058;-75
2022/12/24 07:14:08;;;;;;;;;;;;;;;21.12;28.11;97641.91;5115730;28;1043;-74
2022/12/24 07:16:34;;;;;;;;;;;;;;;20.98;28.40;97645.16;5116387;28;1466;-74
2022/12/24 07:18:59;;;;;;;;;;;;;;;21.07;28.51;97648.13;5116537;28;843;-74
2022/12/24 07:21:25;;;;;;;;;;;;;;;21.38;27.77;97633.47;5116690;28;874;-74
2022/12/24 07:23:50;;;;;;;;;;;;;;;21.39;28.08;97649.22;5116574;28;979;-74
2022/12/24 07:26:16;;;;;;;;;;;;;;;21.27;27.97;97640.22;5115134;28;1950;-74
2022/12/24 07:28:41;;;;;;;;;;;;;;;20.99;28.34;97646.78;5116478;28;900;-74
2022/12/24 07:31:07;;;;;;;;;;;;;;;21.11;28.24;97637.50;5116660;28;912;-74
2022/12/24 07:33:32;;;;;;;;;;;;;;;21.13;28.16;97646.31;5116483;28;939;-74
2022/12/24 07:35:58;;;;;;;;;;;;;;;21.36;27.80;97642.44;5115938;28;1523;-74
2022/12/24 07:38:24;;;;;;;;;;;;;;;21.52;27.63;97638.69;5080246;28;925;-74
2022/12/24 07:40:49;;;;;;;;;;;;;;;21.56;27.80;97630.88;5116071;28;944;-74
2022/12/24 07:43:15;;;;;;;;;;;;;;;21.15;28.25;97643.84;5116352;28;974;-74
2022/12/24 07:45:40;;;;;;;;;;;;;;;20.92;28.58;97644.13;5116075;28;1907;-74
2022/12/24 07:48:06;;;;;;;;;;;;;;;21.14;28.17;97635.78;5114969;28;976;-74
2022/12/24 07:50:31;;;;;;;;;;;;;;;21.24;28.20;97634.66;5115441;28;803;-74
2022/12/24 07:52:56;;;;;;;;;;;;;;;21.46;27.65;97629.19;5116274;28;1104;-74
2022/12/24 07:55:22;;;;;;;;;;;;;;;21.19;27.94;97633.22;5115479;28;1543;-74
2022/12/24 07:57:47;;;;;;;;;;;;;;;21.01;28.51;97644.28;5114631;28;898;-74
2022/12/24 08:00:13;;;;;;;;;;;;;;;21.15;27.92;97637.41;5096580;28;961;-74
2022/12/24 08:02:38;;;;;;;;;;;;;;;21.37;27.93;97631.91;5116099;28;859;-74
2022/12/24 08:05:04;;;;;;;;;;;;;;;21.30;28.29;97638.56;5113941;28;1971;-74
2022/12/24 08:07:30;;;;;;;;;;;;;;;21.24;28.11;97627.00;5079610;28;1040;-74
2022/12/24 08:09:55;;;;;;;;;;;;;;;21.41;27.56;97632.59;5116057;28;877;-74
2022/12/24 08:12:20;;;;;;;;;;;;;;;21.23;27.86;97633.88;5115709;28;1148;-74
2022/12/24 08:14:46;;;;;;;;;;;;;;;21.28;28.24;97636.16;5115499;28;1043;-73
2022/12/24 08:17:11;;;;;;;;;;;;;;;21.39;27.99;97641.50;5115201;28;1708;-74
2022/12/24 08:19:37;;;;;;;;;;;;;;;21.62;27.75;97631.88;5115545;28;1276;-74
2022/12/24 08:22:02;;;;;;;;;;;;;;;21.27;27.78;97628.91;5114660;28;1467;-74
2022/12/24 08:24:28;;;;;;;;;;;;;;;21.16;28.10;97622.00;5112956;28;1054;-74
2022/12/24 08:26:53;;;;;;;;;;;;;;;20.91;28.81;97628.41;5115544;28;1909;-74
2022/12/24 08:29:19;;;;;;;;;;;;;;;21.17;28.71;97627.19;5115421;28;917;-74
2022/12/24 08:31:44;;;;;;;;;;;;;;;21.37;28.06;97623.41;5115867;28;952;-74
2022/12/24 08:34:09;;;;;;;;;;;;;;;21.59;27.97;97621.47;5114911;28;1673;-74
2022/12/24 08:36:35;;;;;;;;;;;;;;;21.28;27.88;97616.34;5115617;28;912;-74
2022/12/24 08:39:02;;;;;;;;;;;;;;;21.22;28.46;97620.19;5116328;28;873;-74
2022/12/24 08:41:30;;;;;;;;;;;;;;;21.02;28.68;97623.22;5115883;28;963;-74
2022/12/24 08:43:56;;;;;;;;;;;;;;;21.62;28.00;97614.91;5111437;28;1559;-74
2022/12/24 08:46:21;;;;;;;;;;;;;;;21.44;28.23;97614.69;5113569;28;1913;-74
2022/12/24 08:48:47;;;;;;;;;;;;;;;21.39;28.17;97620.91;5096283;28;1122;-74
2022/12/24 08:51:12;;;;;;;;;;;;;;;21.17;28.25;97623.59;5115277;28;956;-74
2022/12/24 08:53:38;;;;;;;;;;;;;;;21.02;28.41;97617.56;5114652;28;1468;-74
2022/12/24 08:56:04;;;;;;;;;;;;;;;21.18;28.48;97613.84;5114401;28;915;-74
2022/12/24 08:58:30;;;;;;;;;;;;;;;21.36;28.12;97630.31;5115017;28;984;-74
2022/12/24 09:00:55;;;;;;;;;;;;;;;21.50;27.84;97618.53;5115648;28;924;-74
2022/12/24 09:03:21;;;;;;;;;;;;;;;21.37;27.99;97626.22;5118335;28;1767;-74
2022/12/24 09:05:46;;;;;;;;;;;;;;;21.17;28.32;97615.88;5119402;28;1967;-74
2022/12/24 09:08:12;;;;;;;;;;;;;;;20.90;28.94;97604.22;5119080;28;1068;-74
2022/12/24 09:10:37;;;;;;;;;;;;;;;21.07;28.49;97620.63;5119161;28;928;-74
2022/12/24 09:13:03;;;;;;;;;;;;;;;21.23;28.52;97622.56;5118242;28;1455;-74
2022/12/24 09:15:28;;;;;;;;;;;;;;;21.51;28.03;97626.56;5119168;28;915;-73
2022/12/24 09:17:53;;;;;;;;;;;;;;;21.59;27.97;97618.63;5119246;28;960;-74
2022/12/24 09:20:19;;;;;;;;;;;;;;;21.36;27.92;97619.00;5118886;28;884;-74
2022/12/24 09:22:44;;;;;;;;;;;;;;;21.22;28.05;97615.31;5117260;28;1317;-74
2022/12/24 09:25:10;;;;;;;;;;;;;;;21.08;28.42;97612.94;5117405;28;1966;-74
2022/12/24 09:27:35;;;;;;;;;;;;;;;21.27;28.38;97611.94;5119160;28;855;-74
2022/12/24 09:30:01;;;;;;;;;;;;;;;21.39;28.14;97612.41;5118919;28;933;-74
2022/12/24 09:32:26;;;;;;;;;;;;;;;21.31;28.10;97618.31;5118058;28;1472;-74
2022/12/24 09:34:52;;;;;;;;;;;;;;;21.27;28.19;97617.59;5118920;28;956;-74
2022/12/24 09:37:17;;;;;;;;;;;;;;;21.13;28.35;97606.72;5118882;28;988;-73
2022/12/24 09:39:42;;;;;;;;;;;;;;;20.83;29.17;97615.72;5118489;28;1001;-74
2022/12/24 09:42:11;;;;;;;;;;;;;;;21.50;28.23;97607.19;5118253;28;993;-74
2022/12/24 09:44:38;;;;;;;;;;;;;;;21.40;28.07;97603.50;5117483;28;1530;-74
2022/12/24 09:47:07;;;;;;;;;;;;;;;21.21;28.21;97596.78;5117748;28;959;-74
2022/12/24 09:49:37;;;;;;;;;;;;;;;21.04;28.92;97592.47;5117590;28;967;-74
2022/12/24 09:52:10;;;;;;;;;;;;;;;20.95;28.61;97589.50;5117114;28;933;-74
2022/12/24 09:54:45;;;;;;;;;;;;;;;21.31;28.70;97598.50;5117693;28;1466;-74
2022/12/24 09:57:31;;;;;;;;;;;;;;;21.36;28.14;97602.00;5118126;28;929;-74
2022/12/24 09:59:56;;;;;;;;;;;;;;;21.44;28.05;97600.53;5117321;28;929;-74
2022/12/24 10:02:22;;;;;;;;;;;;;;;21.09;28.59;97589.06;5117098;28;1636;-73
2022/12/24 10:04:47;;;;;;;;;;;;;;;21.02;28.48;97597.78;5118398;28;1975;-74
2022/12/24 10:07:31;;;;;;;;;;;;;;;20.95;28.58;97590.31;5118222;28;927;-74
2022/12/24 10:10:02;;;;;;;;;;;;;;;20.96;28.67;97545.84;5098644;28;1216;-74
2022/12/24 10:12:28;;;;;;;;;;;;;;;21.30;28.07;97582.78;5116095;28;1464;-74
2022/12/24 10:15:02;;;;;;;;;;;;;;;21.42;28.05;97588.88;5117440;28;1034;-74
2022/12/24 10:17:27;;;;;;;;;;;;;;;21.19;28.08;97582.28;5117049;28;2038;-74
2022/12/24 10:20:12;;;;;;;;;;;;;;;20.97;28.64;97581.34;5117906;28;1003;-74
2022/12/24 10:22:47;;;;;;;;;;;;;;;20.94;28.55;97570.97;5097222;28;1272;-74
2022/12/24 10:25:25;;;;;;;;;;;;;;;20.96;28.90;97568.47;5096320;28;1979;-74
2022/12/24 10:27:50;;;;;;;;;;;;;;;21.24;28.23;97567.59;5097465;28;921;-74
2022/12/24 10:30:18;;;;;;;;;;;;;;;21.33;28.32;97570.53;5095906;28;1543;-74
2022/12/24 10:32:44;;;;;;;;;;;;;;;20.94;28.47;97573.78;5116479;28;1146;-74
2022/12/24 10:35:12;;;;;;;;;;;;;;;21.02;28.34;97566.66;5099693;28;908;-74
2022/12/24 10:37:38;;;;;;;;;;;;;;;20.89;28.44;97568.69;5117629;28;938;-74
2022/12/24 10:40:03;;;;;;;;;;;;;;;20.85;28.93;97574.44;5117739;28;1034;-74
2022/12/24 10:42:37;;;;;;;;;;;;;;;21.15;28.49;97581.59;5115480;28;1571;-74
2022/12/24 10:45:03;;;;;;;;;;;;;;;21.47;27.85;97582.66;5116174;28;1902;-74
2022/12/24 10:47:28;;;;;;;;;;;;;;;21.38;27.86;97574.03;5116575;28;917;-73
2022/12/24 10:50:00;;;;;;;;;;;;;;;20.76;28.91;97577.13;5115071;28;1428;-74
2022/12/24 10:52:31;;;;;;;;;;;;;;;20.73;28.85;97578.84;5099215;28;1799;-74
2022/12/24 10:55:03;;;;;;;;;;;;;;;20.84;28.63;97583.38;5115824;28;941;-74
2022/12/24 10:57:28;;;;;;;;;;;;;;;21.02;27.98;97573.09;5115961;28;839;-73
2022/12/24 10:59:54;;;;;;;;;;;;;;;21.16;27.75;97566.22;5116389;28;1680;-74
2022/12/24 11:02:31;;;;;;;;;;;;;;;21.38;27.27;97566.34;5099216;28;879;-74
2022/12/24 11:05:00;;;;;;;;;;;;;;;21.32;27.22;97560.47;5116758;28;1906;-74
2022/12/24 11:07:25;;;;;;;;;;;;;;;20.81;27.93;97560.41;5098946;28;1000;-74
2022/12/24 11:09:58;;;;;;;;;;;;;;;20.56;27.98;97574.50;5115176;28;1508;-74
2022/12/24 11:12:30;;;;;;;;;;;;;;;20.58;28.45;97580.50;5112874;28;1412;-74
2022/12/24 11:14:59;;;;;;;;;;;;;;;20.94;27.41;97565.31;5078272;28;1109;-74
2022/12/24 11:17:25;;;;;;;;;;;;;;;21.06;27.24;97567.34;5078502;28;915;-74
2022/12/24 11:19:50;;;;;;;;;;;;;;;21.06;27.49;97561.69;5096117;28;974;-74
2022/12/24 11:22:17;;;;;;;;;;;;;;;21.30;27.00;97557.31;5095231;28;965;-74
2022/12/24 11:24:42;;;;;;;;;;;;;;;21.04;27.36;97559.31;5097342;28;1906;-73
2022/12/24 11:27:40;;;;;;;;;;;;;;;20.69;27.90;97566.84;5094901;28;848;-74
2022/12/24 11:30:12;;;;;;;;;;;;;;;21.30;27.41;97562.19;5211788;22;3867;-76
2022/12/24 11:32:37;;;;;;;;;;;;;;;21.97;27.15;97563.97;5091163;28;1565;-76
2022/12/24 11:35:07;;;;;;;;;;;;;;;21.26;28.23;97559.41;5076332;28;1548;-76
2022/12/24 11:37:32;;;;;;;;;;;;;;;20.81;29.17;97568.09;5060463;28;884;-76
2022/12/24 11:39:59;;;;;;;;;;;;;;;20.80;29.18;97572.97;5076517;28;970;-76
2022/12/24 11:42:26;;;;;;;;;;;;;;;21.06;28.45;97561.69;5086044;28;1605;-76
2022/12/24 11:44:52;;;;;;;;;;;;;;;21.08;28.29;97562.81;5096725;28;1975;-76
2022/12/24 11:47:18;;;;;;;;;;;;;;;21.44;27.64;97566.56;5097375;28;1302;-76
2022/12/24 11:49:43;;;;;;;;;;;;;;;21.33;27.91;97570.53;5096696;28;1504;-76
2022/12/24 11:52:09;;;;;;;;;;;;;;;20.97;28.05;97570.84;5096341;28;1501;-75
2022/12/24 11:54:36;;;;;;;;;;;;;;;20.62;28.53;97575.50;5097830;28;873;-75
2022/12/24 11:57:02;;;;;;;;;;;;;;;20.46;28.62;97575.56;5096915;28;1015;-76
2022/12/24 11:59:29;;;;;;;;;;;;;;;21.02;28.34;97572.31;5096819;28;942;-76
2022/12/24 12:01:56;;;;;;;;;;;;;;;21.30;27.38;97571.44;5095901;28;1713;-76
2022/12/24 12:04:23;;;;;;;;;;;;;;;21.29;27.15;97569.81;5077066;28;1476;-76
2022/12/24 12:06:54;;;;;;;;;;;;;;;21.38;27.36;97571.22;5035800;28;1965;-78
2022/12/24 12:09:21;;;;;;;;;;;;;;;21.29;27.02;97563.38;5018984;28;1043;-78
2022/12/24 12:11:49;;;;;;;;;;;;;;;20.95;27.76;97558.41;5038066;28;1439;-78
2022/12/24 12:14:26;;;;;;;;;;;;;;;21.01;27.47;97556.59;5039049;28;956;-79
2022/12/24 12:16:59;;;;;;;;;;;;;;;21.02;27.72;97556.13;5039224;28;950;-79
2022/12/24 12:19:30;;;;;;;;;;;;;;;21.07;27.71;97557.59;5038582;28;1923;-79
2022/12/24 12:21:56;;;;;;;;;;;;;;;21.30;27.19;97556.50;5039276;28;1026;-79
2022/12/24 12:24:23;;;;;;;;;;;;;;;21.36;27.23;97562.41;5055084;28;945;-79
2022/12/24 12:26:53;;;;;;;;;;;;;;;21.42;27.04;97561.38;5038979;28;1921;-78
2022/12/24 12:29:26;;;;;;;;;;;;;;;20.96;27.75;97559.97;5037138;28;1962;-79
2022/12/24 12:31:55;;;;;;;;;;;;;;;20.73;28.05;97561.09;5038523;28;1006;-78
2022/12/24 12:34:21;;;;;;;;;;;;;;;21.27;27.42;97561.00;5054995;28;1011;-78
2022/12/24 12:37:04;;;;;;;;;;;;;;;21.46;27.40;97567.69;5060300;28;1125;-79
2022/12/24 12:39:30;;;;;;;;;;;;;;;21.50;27.05;97564.75;5099842;28;1439;-79
2022/12/24 12:41:59;;;;;;;;;;;;;;;21.43;27.51;97567.81;5102173;28;893;-78
2022/12/24 12:44:27;;;;;;;;;;;;;;;21.15;27.51;97570.28;5100349;28;1019;-79
2022/12/24 12:47:03;;;;;;;;;;;;;;;20.93;27.97;97569.34;5102191;28;1977;-79
2022/12/24 12:49:40;;;;;;;;;;;;;;;20.96;28.27;97574.13;5099823;28;1424;-78
2022/12/24 12:52:24;;;;;;;;;;;;;;;21.10;28.16;97565.19;5102204;28;962;-79
2022/12/24 12:55:04;;;;;;;;;;;;;;;21.27;27.77;97572.31;5101840;28;888;-78
2022/12/24 12:57:31;;;;;;;;;;;;;;;21.20;27.72;97566.91;5102282;28;904;-78
2022/12/24 13:00:07;;;;;;;;;;;;;;;20.94;27.86;97574.56;5050845;28;1488;-78
2022/12/24 13:02:52;;;;;;;;;;;;;;;20.86;28.21;97569.59;5080272;28;939;-78
2022/12/24 13:05:29;;;;;;;;;;;;;;;21.06;27.83;97573.78;5081052;28;1980;-78
2022/12/24 13:07:55;;;;;;;;;;;;;;;21.31;27.43;97570.19;5080634;28;946;-79
2022/12/24 13:10:26;;;;;;;;;;;;;;;21.19;27.45;97576.63;5098042;28;1591;-78
2022/12/24 13:13:10;;;;;;;;;;;;;;;21.07;27.67;97577.41;5100185;28;997;-78